Time;durP1;ratioP1;P1;durP2;ratioP2;P2;SDS_P1;SDS_P2;PMS_P1;PMS_P2;Temp;Humidity;BMP_temperature;BMP_pressure;BME280_temperature;BME280_humidity;BME280_pressure;Samples;Min_cycle;Max_cycle;Signal;HPM_P1;HPM_P2
2021/05/12 00:02:20;;;;;;;58.72;38.00;;;;;;;12.16;100.00;100482.63;4971486;28;20045;-81
2021/05/12 00:04:47;;;;;;;57.25;35.80;;;;;;;12.07;100.00;100484.56;4982749;28;20077;-81
2021/05/12 00:07:12;;;;;;;59.33;37.67;;;;;;;12.05;100.00;100480.38;4952782;28;20042;-80
2021/05/12 00:09:39;;;;;;;58.40;36.42;;;;;;;12.07;100.00;100470.28;4985264;28;20394;-81
2021/05/12 00:12:05;;;;;;;60.72;37.08;;;;;;;12.06;100.00;100476.69;4968619;28;20042;-81
2021/05/12 00:14:31;;;;;;;57.20;37.92;;;;;;;12.03;100.00;100482.44;4987750;28;20042;-81
2021/05/12 00:17:00;;;;;;;56.47;37.58;;;;;;;12.02;100.00;100480.75;4969510;28;20034;-81
2021/05/12 00:19:26;;;;;;;57.53;37.17;;;;;;;11.98;100.00;100485.66;4980544;28;20050;-82
2021/05/12 00:22:28;;;;;;;56.75;39.63;;;;;;;12.03;100.00;100487.81;4982415;28;20165;-81
2021/05/12 00:24:39;;;;;;;61.00;40.72;;;;;;;12.02;100.00;100491.50;4982276;28;20049;-81
2021/05/12 00:27:06;;;;;;;57.10;39.38;;;;;;;11.99;100.00;100494.53;4975233;28;20774;-81
2021/05/12 00:29:32;;;;;;;57.85;35.80;;;;;;;11.95;100.00;100494.91;4986643;28;20546;-81
2021/05/12 00:31:57;;;;;;;59.70;37.97;;;;;;;11.92;100.00;100492.59;4987980;28;20042;-81
2021/05/12 00:34:23;;;;;;;54.65;38.20;;;;;;;12.00;100.00;100490.81;4985450;28;20085;-81
2021/05/12 00:36:48;;;;;;;58.35;38.83;;;;;;;11.95;100.00;100496.75;4947531;28;20479;-81
2021/05/12 00:39:14;;;;;;;62.30;42.08;;;;;;;12.00;100.00;100493.50;4990559;28;20120;-81
2021/05/12 00:41:41;;;;;;;59.88;40.33;;;;;;;11.98;100.00;100490.19;4961480;28;20189;-81
2021/05/12 00:44:20;;;;;;;57.97;40.47;;;;;;;11.95;100.00;100492.22;4987669;28;20048;-81
2021/05/12 00:46:48;;;;;;;63.35;40.85;;;;;;;11.92;100.00;100497.13;4981374;28;20514;-81
2021/05/12 00:49:16;;;;;;;62.33;41.85;;;;;;;11.92;100.00;100497.97;4977829;28;20069;-81
2021/05/12 00:51:42;;;;;;;66.15;41.67;;;;;;;11.89;100.00;100502.88;4988104;28;20435;-82
2021/05/12 00:54:08;;;;;;;62.70;42.53;;;;;;;11.85;100.00;100499.69;4973771;28;21740;-81
2021/05/12 00:56:36;;;;;;;59.70;42.33;;;;;;;11.88;100.00;100504.72;4965812;28;20438;-81
2021/05/12 00:59:02;;;;;;;61.60;38.53;;;;;;;11.82;100.00;100505.38;4985722;28;20050;-81
2021/05/12 01:01:28;;;;;;;64.78;40.05;;;;;;;11.75;100.00;100507.13;4988060;28;20676;-81
2021/05/12 01:03:53;;;;;;;64.07;42.60;;;;;;;11.80;100.00;100511.97;5001319;28;20046;-82
2021/05/12 01:06:26;;;;;;;63.67;40.45;;;;;;;11.81;100.00;100509.09;4988135;28;20053;-81
2021/05/12 01:08:52;;;;;;;63.30;40.42;;;;;;;11.77;100.00;100513.19;4985736;28;20054;-81
2021/05/12 01:11:17;;;;;;;67.10;41.90;;;;;;;11.78;100.00;100520.22;4985524;28;20050;-81
2021/05/12 01:13:43;;;;;;;66.25;43.05;;;;;;;11.74;100.00;100517.06;4987651;28;20513;-82
2021/05/12 01:16:10;;;;;;;63.97;42.03;;;;;;;11.77;100.00;100515.88;4992870;28;20057;-82
2021/05/12 01:18:36;;;;;;;65.70;38.30;;;;;;;11.72;100.00;100515.56;4987334;28;20038;-82
2021/05/12 01:21:05;;;;;;;63.40;41.83;;;;;;;11.72;100.00;100523.63;4982308;28;20088;-82
2021/05/12 01:23:34;;;;;;;61.80;39.10;;;;;;;11.67;100.00;100520.63;4968393;28;20144;-81
2021/05/12 01:26:01;;;;;;;60.47;39.70;;;;;;;11.66;100.00;100530.53;4952761;28;20675;-81
2021/05/12 01:28:31;;;;;;;65.55;39.17;;;;;;;11.64;100.00;100523.66;4988227;28;20052;-82
2021/05/12 01:30:58;;;;;;;62.53;42.88;;;;;;;11.63;100.00;100525.53;4986010;28;20388;-82
2021/05/12 01:33:26;;;;;;;69.88;43.20;;;;;;;11.65;100.00;100519.97;4984906;28;20043;-81
2021/05/12 01:35:52;;;;;;;68.20;43.28;;;;;;;11.60;100.00;100525.88;4968590;28;20043;-82
2021/05/12 01:38:18;;;;;;;66.10;43.13;;;;;;;11.53;100.00;100522.22;4967623;28;20053;-81
2021/05/12 01:40:45;;;;;;;64.03;44.35;;;;;;;11.54;100.00;100529.28;4951722;28;20514;-82
2021/05/12 01:43:12;;;;;;;66.10;44.00;;;;;;;11.56;100.00;100523.72;4978950;28;20093;-82
2021/05/12 01:45:39;;;;;;;70.68;45.90;;;;;;;11.58;100.00;100527.06;4962019;28;20046;-81
2021/05/12 01:48:07;;;;;;;65.97;47.38;;;;;;;11.50;100.00;100526.09;4963196;28;20042;-81
2021/05/12 01:50:34;;;;;;;70.88;44.30;;;;;;;11.46;100.00;100524.78;4985572;28;20097;-82
2021/05/12 01:53:00;;;;;;;66.75;46.30;;;;;;;11.48;100.00;100528.13;4983799;28;20078;-80
2021/05/12 01:55:27;;;;;;;65.93;45.25;;;;;;;11.47;100.00;100525.63;4986008;28;20126;-81
2021/05/12 01:57:53;;;;;;;67.30;47.80;;;;;;;11.49;100.00;100534.34;4984624;28;20042;-81
2021/05/12 02:00:24;;;;;;;68.60;46.75;;;;;;;11.42;100.00;100527.97;4979553;28;20395;-81
2021/05/12 02:02:51;;;;;;;64.03;44.30;;;;;;;11.35;100.00;100527.84;4988261;28;20053;-81
2021/05/12 02:05:17;;;;;;;69.63;46.90;;;;;;;11.36;100.00;100520.63;4979771;28;20050;-82
2021/05/12 02:07:42;;;;;;;63.50;44.95;;;;;;;11.28;100.00;100527.72;4987441;28;20558;-82
2021/05/12 02:10:09;;;;;;;71.05;47.78;;;;;;;11.33;100.00;100529.88;4978715;28;20046;-81
2021/05/12 02:12:34;;;;;;;73.45;50.97;;;;;;;11.34;100.00;100531.56;4986513;28;20047;-82
2021/05/12 02:15:00;;;;;;;70.40;47.72;;;;;;;11.29;100.00;100531.25;4984526;28;20050;-81
2021/05/12 02:17:27;;;;;;;72.90;47.65;;;;;;;11.23;100.00;100537.31;4979824;28;20050;-82
2021/05/12 02:19:52;;;;;;;73.05;46.85;;;;;;;11.15;100.00;100538.19;4985895;28;20038;-81
2021/05/12 02:22:18;;;;;;;71.13;46.08;;;;;;;11.16;100.00;100529.09;4988583;28;20042;-82
2021/05/12 02:24:44;;;;;;;68.65;46.70;;;;;;;11.11;100.00;100531.50;4992023;28;20454;-81
2021/05/12 02:27:10;;;;;;;71.10;49.67;;;;;;;11.13;100.00;100529.47;4967246;28;20046;-82
2021/05/12 02:29:36;;;;;;;73.25;48.22;;;;;;;11.11;100.00;100528.00;4986322;28;20483;-81
2021/05/12 02:32:01;;;;;;;75.53;52.10;;;;;;;11.16;100.00;100528.28;4983993;28;20050;-81
2021/05/12 02:34:26;;;;;;;76.55;49.80;;;;;;;11.10;100.00;100528.97;4993270;28;20495;-82
2021/05/12 02:36:52;;;;;;;75.45;50.67;;;;;;;11.13;100.00;100534.00;4985297;28;20435;-81
2021/05/12 02:39:17;;;;;;;77.53;52.67;;;;;;;11.16;100.00;100528.28;4987834;28;20041;-81
2021/05/12 02:41:44;;;;;;;75.55;51.97;;;;;;;11.15;100.00;100524.75;4952423;28;20406;-81
2021/05/12 02:44:09;;;;;;;70.75;45.30;;;;;;;11.10;100.00;100531.66;4986452;28;20053;-81
2021/05/12 02:46:34;;;;;;;69.32;49.13;;;;;;;11.12;100.00;100526.97;4985102;28;20047;-82
2021/05/12 02:49:00;;;;;;;69.00;49.38;;;;;;;11.12;100.00;100527.78;4953338;28;20051;-81
2021/05/12 02:51:25;;;;;;;77.22;49.92;;;;;;;11.12;100.00;100535.84;4981463;28;21478;-81
2021/05/12 02:53:51;;;;;;;68.45;47.13;;;;;;;11.11;100.00;100541.41;4989455;28;20042;-81
2021/05/12 02:56:16;;;;;;;69.53;46.80;;;;;;;11.03;100.00;100544.97;4976742;28;20069;-82
2021/05/12 02:58:42;;;;;;;78.93;47.22;;;;;;;10.99;100.00;100540.94;4969733;28;20450;-81
2021/05/12 03:01:07;;;;;;;76.75;46.13;;;;;;;10.97;100.00;100551.03;4971017;28;20054;-81
2021/05/12 03:03:32;;;;;;;75.38;45.67;;;;;;;10.97;100.00;100541.13;4985650;28;20053;-81
2021/05/12 03:05:58;;;;;;;71.60;45.30;;;;;;;10.97;100.00;100551.03;4999668;28;20050;-81
2021/05/12 03:08:23;;;;;;;74.78;48.55;;;;;;;10.97;100.00;100551.03;4950442;28;20066;-82
2021/05/12 03:10:48;;;;;;;73.88;47.97;;;;;;;10.95;100.00;100547.66;4950258;28;20093;-81
2021/05/12 03:13:14;;;;;;;73.68;44.22;;;;;;;10.90;100.00;100545.47;4992694;28;20498;-81
2021/05/12 03:15:40;;;;;;;76.70;47.35;;;;;;;10.89;100.00;100554.56;4993434;28;20096;-81
2021/05/12 03:18:08;;;;;;;73.97;50.90;;;;;;;10.92;100.00;100543.47;4972206;28;20038;-82
2021/05/12 03:20:34;;;;;;;71.93;43.50;;;;;;;10.89;100.00;100545.66;4985107;28;20038;-81
2021/05/12 03:23:00;;;;;;;69.90;46.28;;;;;;;10.85;100.00;100550.56;4990263;28;20073;-81
2021/05/12 03:25:26;;;;;;;73.78;46.03;;;;;;;10.87;100.00;100550.38;4991290;28;20553;-81
2021/05/12 03:27:53;;;;;;;73.75;47.38;;;;;;;10.86;100.00;100557.59;5001946;28;20398;-81
2021/05/12 03:30:23;;;;;;;75.78;48.60;;;;;;;10.80;100.00;100556.44;4983613;28;20398;-81
2021/05/12 03:32:49;;;;;;;74.20;46.53;;;;;;;10.81;100.00;100555.41;4989398;28;20038;-81
2021/05/12 03:35:15;;;;;;;76.82;49.42;;;;;;;10.80;100.00;100551.06;4985996;28;20054;-81
2021/05/12 03:37:40;;;;;;;71.32;43.38;;;;;;;10.73;100.00;100555.44;4978223;28;20038;-81
2021/05/12 03:40:07;;;;;;;71.28;44.88;;;;;;;10.68;100.00;100562.34;4986851;28;20038;-82
2021/05/12 03:42:32;;;;;;;74.25;45.60;;;;;;;10.72;100.00;100558.28;4979084;28;20484;-81
2021/05/12 03:44:57;;;;;;;74.85;49.28;;;;;;;10.73;100.00;100565.31;4981609;28;20061;-81
2021/05/12 03:47:23;;;;;;;71.07;47.35;;;;;;;10.70;100.00;100565.66;4967586;28;20134;-81
2021/05/12 03:49:49;;;;;;;70.50;42.92;;;;;;;10.67;100.00;100566.84;4966870;28;20050;-82
2021/05/12 03:52:14;;;;;;;76.65;44.75;;;;;;;10.61;100.00;100564.84;4975355;28;20046;-82
2021/05/12 03:54:39;;;;;;;73.55;42.10;;;;;;;10.55;100.00;100561.00;4945566;28;20099;-81
2021/05/12 03:57:06;;;;;;;72.68;46.53;;;;;;;10.54;100.00;100556.66;4963613;28;20061;-81
2021/05/12 03:59:33;;;;;;;73.25;43.97;;;;;;;10.49;100.00;100558.16;4982126;28;20491;-82
2021/05/12 04:02:00;;;;;;;79.85;49.83;;;;;;;10.47;100.00;100555.66;4980767;28;20411;-80
2021/05/12 04:04:26;;;;;;;77.80;44.10;;;;;;;10.43;100.00;100559.66;4950231;28;20124;-82
2021/05/12 04:06:51;;;;;;;78.35;46.13;;;;;;;10.41;100.00;100567.03;4985321;28;20553;-81
2021/05/12 04:09:17;;;;;;;77.32;46.20;;;;;;;10.39;100.00;100569.06;4985236;28;20045;-81
2021/05/12 04:11:44;;;;;;;80.18;46.65;;;;;;;10.33;100.00;100572.44;4980483;28;20042;-81
2021/05/12 04:14:10;;;;;;;83.30;52.38;;;;;;;10.39;100.00;100582.47;4983116;28;20041;-81
2021/05/12 04:16:36;;;;;;;84.20;50.95;;;;;;;10.32;100.00;100586.84;4982673;28;20042;-81
2021/05/12 04:19:03;;;;;;;87.32;51.95;;;;;;;10.32;100.00;100584.97;4976817;28;20093;-81
2021/05/12 04:21:30;;;;;;;90.13;51.60;;;;;;;10.24;100.00;100586.78;4982341;28;20075;-81
2021/05/12 04:23:55;;;;;;;98.07;57.38;;;;;;;10.22;100.00;100586.13;4988088;28;20034;-81
2021/05/12 04:26:21;;;;;;;97.22;57.20;;;;;;;10.21;100.00;100571.03;5001651;28;20038;-81
2021/05/12 04:28:46;;;;;;;98.43;54.47;;;;;;;10.12;100.00;100573.72;4957587;28;20053;-80
2021/05/12 04:31:12;;;;;;;102.22;63.65;;;;;;;10.22;100.00;100586.13;4983267;28;20520;-81
2021/05/12 04:33:38;;;;;;;103.35;59.60;;;;;;;10.17;100.00;100578.59;4991795;28;20445;-82
2021/05/12 04:36:04;;;;;;;91.43;55.65;;;;;;;10.11;100.00;100577.41;4981554;28;20178;-82
2021/05/12 04:38:29;;;;;;;95.72;57.20;;;;;;;10.10;100.00;100589.16;4985028;28;20050;-81
2021/05/12 04:40:57;;;;;;;97.95;55.38;;;;;;;10.09;100.00;100594.66;4990323;28;20038;-81
2021/05/12 04:43:23;;;;;;;90.05;54.50;;;;;;;10.05;100.00;100599.53;4984281;28;20035;-81
2021/05/12 04:45:48;;;;;;;88.93;56.15;;;;;;;10.10;100.00;100599.03;4996481;28;20049;-81
2021/05/12 04:48:13;;;;;;;91.85;53.55;;;;;;;10.05;100.00;100604.88;4962418;28;20539;-81
2021/05/12 04:50:39;;;;;;;85.20;56.95;;;;;;;10.09;100.00;100600.84;4995548;28;20247;-80
2021/05/12 04:53:04;;;;;;;81.90;50.35;;;;;;;10.06;100.00;100603.88;4985620;28;20387;-81
2021/05/12 04:55:30;;;;;;;72.32;45.70;;;;;;;10.01;100.00;100594.66;4986457;28;20517;-81
2021/05/12 04:57:55;;;;;;;67.57;43.95;;;;;;;10.02;100.00;100599.03;4985581;28;20080;-80
2021/05/12 05:00:22;;;;;;;59.92;40.30;;;;;;;9.98;100.00;100595.81;4988269;28;20042;-81
2021/05/12 05:02:48;;;;;;;58.15;38.63;;;;;;;9.94;100.00;100597.16;4967925;28;20050;-82
2021/05/12 05:05:16;;;;;;;54.67;35.97;;;;;;;9.96;100.00;100605.88;4970277;28;20046;-82
2021/05/12 05:07:43;;;;;;;50.13;35.57;;;;;;;9.94;100.00;100598.00;4966893;28;20055;-81
2021/05/12 05:10:09;;;;;;;50.35;33.38;;;;;;;9.98;100.00;100609.22;4966499;28;20639;-81
2021/05/12 05:12:34;;;;;;;45.10;33.00;;;;;;;10.05;100.00;100610.25;4958637;28;20047;-81
2021/05/12 05:15:00;;;;;;;49.28;35.90;;;;;;;10.11;100.00;100614.09;4973251;28;20043;-81
2021/05/12 05:17:28;;;;;;;47.40;33.20;;;;;;;10.08;100.00;100606.41;4955346;28;20046;-82
2021/05/12 05:19:54;;;;;;;39.80;30.80;;;;;;;10.13;100.00;100612.94;4963234;28;20181;-81
2021/05/12 05:22:20;;;;;;;42.13;29.42;;;;;;;10.14;100.00;100609.25;4965640;28;20126;-80
2021/05/12 05:24:48;;;;;;;40.20;29.30;;;;;;;10.20;100.00;100613.09;4969591;28;20174;-81
2021/05/12 05:27:13;;;;;;;37.65;24.73;;;;;;;10.14;100.00;100617.28;4986574;28;20623;-80
2021/05/12 05:29:39;;;;;;;37.95;29.35;;;;;;;10.23;100.00;100611.94;4982664;28;20050;-80
2021/05/12 05:32:04;;;;;;;36.38;24.52;;;;;;;10.21;100.00;100604.06;5001416;28;20076;-80
2021/05/12 05:34:30;;;;;;;37.78;27.08;;;;;;;10.26;100.00;100617.81;4980439;28;20376;-80
2021/05/12 05:36:55;;;;;;;40.33;26.98;;;;;;;10.32;100.00;100622.53;4983617;28;20121;-81
2021/05/12 05:39:22;;;;;;;35.55;27.58;;;;;;;10.38;100.00;100621.03;4969964;28;20042;-82
2021/05/12 05:41:47;;;;;;;33.33;23.38;;;;;;;10.33;100.00;100618.03;4962411;28;20411;-80
2021/05/12 05:44:12;;;;;;;36.00;26.30;;;;;;;10.43;100.00;100612.50;4971952;28;20026;-80
2021/05/12 05:46:43;;;;;;;34.83;25.15;;;;;;;10.42;100.00;100617.03;4965994;28;20133;-81
2021/05/12 05:49:11;;;;;;;39.10;25.10;;;;;;;10.42;100.00;100627.75;4965250;28;20044;-80
2021/05/12 05:51:36;;;;;;;34.40;24.77;;;;;;;10.44;100.00;100636.44;4986812;28;20078;-80
2021/05/12 05:54:02;;;;;;;37.03;25.58;;;;;;;10.50;100.00;100630.44;4981581;28;20065;-79
2021/05/12 05:56:27;;;;;;;35.40;25.77;;;;;;;10.54;100.00;100634.44;4986680;28;22189;-81
2021/05/12 05:58:53;;;;;;;35.90;24.70;;;;;;;10.59;100.00;100631.28;4981749;28;20037;-80
2021/05/12 06:01:18;;;;;;;40.58;27.50;;;;;;;10.73;100.00;100625.22;4986694;28;20495;-80
2021/05/12 06:03:43;;;;;;;41.45;24.40;;;;;;;10.70;100.00;100638.13;4989842;28;20053;-80
2021/05/12 06:06:09;;;;;;;33.85;23.30;;;;;;;10.71;100.00;100639.81;4988805;28;20518;-81
2021/05/12 06:08:34;;;;;;;36.75;24.52;;;;;;;10.78;100.00;100632.75;4980309;28;20051;-80
2021/05/12 06:11:00;;;;;;;33.50;23.50;;;;;;;10.82;100.00;100631.44;4954000;28;20035;-81
2021/05/12 06:13:25;;;;;;;35.40;24.05;;;;;;;10.86;100.00;100638.13;4994529;28;20042;-81
2021/05/12 06:15:51;;;;;;;36.38;25.50;;;;;;;10.95;99.79;100631.72;4968943;28;20047;-81
2021/05/12 06:18:16;;;;;;;36.92;24.23;;;;;;;10.91;99.68;100635.78;4983620;28;20146;-81
2021/05/12 06:20:41;;;;;;;35.58;21.38;;;;;;;10.90;98.72;100639.44;4989822;28;20038;-80
2021/05/12 06:23:07;;;;;;;33.97;23.00;;;;;;;10.98;98.63;100633.22;4971571;28;20046;-82
2021/05/12 06:25:32;;;;;;;35.30;23.80;;;;;;;11.01;98.47;100646.31;4969688;28;20058;-81
2021/05/12 06:27:58;;;;;;;33.45;23.27;;;;;;;11.17;99.39;100648.16;4988300;28;20124;-81
2021/05/12 06:30:24;;;;;;;30.00;21.90;;;;;;;11.18;96.67;100641.75;4971861;28;20049;-81
2021/05/12 06:32:52;;;;;;;33.95;22.45;;;;;;;11.18;96.48;100642.59;4986960;28;20065;-80
2021/05/12 06:35:20;;;;;;;31.60;19.70;;;;;;;11.15;95.12;100642.94;4985685;28;20034;-81
2021/05/12 06:37:46;;;;;;;30.08;21.27;;;;;;;11.22;95.93;100643.94;4986253;28;20043;-80
2021/05/12 06:40:15;;;;;;;36.42;22.67;;;;;;;11.21;96.18;100638.72;4986299;28;20046;-81
2021/05/12 06:42:41;;;;;;;32.58;22.05;;;;;;;11.18;95.58;100647.13;5000546;28;20431;-81
2021/05/12 06:45:07;;;;;;;31.60;21.38;;;;;;;11.17;95.72;100656.19;4972187;28;20038;-81
2021/05/12 06:47:32;;;;;;;33.53;22.13;;;;;;;11.13;95.64;100642.25;4986389;28;20115;-80
2021/05/12 06:49:58;;;;;;;32.35;22.42;;;;;;;11.18;95.05;100650.63;4970517;28;20041;-81
2021/05/12 06:52:23;;;;;;;32.22;20.55;;;;;;;11.15;95.26;100663.59;4977819;28;20068;-81
2021/05/12 06:54:49;;;;;;;36.13;21.38;;;;;;;11.28;96.15;100656.66;4975956;28;20069;-81
2021/05/12 06:57:14;;;;;;;29.23;20.63;;;;;;;11.46;94.98;100651.06;4995699;28;20126;-81
2021/05/12 06:59:39;;;;;;;31.80;21.58;;;;;;;11.63;94.34;100649.16;4991973;28;20042;-81
2021/05/12 07:02:05;;;;;;;29.45;20.13;;;;;;;11.65;92.39;100657.03;4968223;28;20050;-82
2021/05/12 07:04:30;;;;;;;26.98;19.50;;;;;;;11.80;92.24;100660.69;4971026;28;20058;-81
2021/05/12 07:06:55;;;;;;;26.70;15.98;;;;;;;11.75;88.47;100650.44;4996573;28;20050;-80
2021/05/12 07:09:21;;;;;;;30.10;19.33;;;;;;;11.92;90.69;100663.84;4996557;28;20125;-80
2021/05/12 07:11:46;;;;;;;26.30;18.45;;;;;;;12.00;89.27;100653.03;4994549;28;20047;-81
2021/05/12 07:14:12;;;;;;;25.10;18.88;;;;;;;12.10;90.00;100640.19;4975640;28;20113;-80
2021/05/12 07:16:37;;;;;;;29.83;16.77;;;;;;;12.09;87.35;100643.06;5005364;28;20050;-82
2021/05/12 07:19:03;;;;;;;19.10;15.05;;;;;;;12.25;86.30;100644.81;5003278;28;20070;-81
2021/05/12 07:21:28;;;;;;;26.40;15.45;;;;;;;12.35;86.80;100643.56;4991075;28;20049;-81
2021/05/12 07:23:55;;;;;;;20.02;14.32;;;;;;;12.48;85.54;100651.03;4956653;28;20039;-82
2021/05/12 07:26:23;;;;;;;21.13;15.10;;;;;;;12.59;85.74;100649.75;4989030;28;20043;-80
2021/05/12 07:28:49;;;;;;;20.35;15.02;;;;;;;12.68;85.52;100642.47;4966328;28;20531;-81
2021/05/12 07:31:14;;;;;;;20.90;13.32;;;;;;;12.68;82.84;100654.06;5002565;28;20138;-81
2021/05/12 07:33:40;;;;;;;20.25;12.48;;;;;;;12.78;83.55;100654.66;4970402;28;20042;-81
2021/05/12 07:36:05;;;;;;;22.30;14.73;;;;;;;12.80;83.95;100658.00;4989475;28;20046;-81
2021/05/12 07:38:30;;;;;;;21.27;13.77;;;;;;;12.92;84.18;100658.41;4996151;28;20487;-79
2021/05/12 07:40:59;;;;;;;17.70;12.98;;;;;;;13.01;83.24;100665.38;4975679;28;20133;-80
2021/05/12 07:43:24;;;;;;;20.60;12.90;;;;;;;13.13;82.63;100663.06;4988864;28;20066;-81
2021/05/12 07:45:49;;;;;;;18.25;12.50;;;;;;;13.22;81.27;100661.13;4991379;28;20034;-81
2021/05/12 07:48:16;;;;;;;19.23;13.52;;;;;;;13.16;81.77;100664.56;4974732;28;20045;-81
2021/05/12 07:50:41;;;;;;;19.23;12.88;;;;;;;13.25;81.46;100661.63;4958248;28;20406;-81
2021/05/12 07:53:07;;;;;;;22.70;13.55;;;;;;;13.33;81.21;100655.31;4987642;28;20034;-81
2021/05/12 07:55:34;;;;;;;20.20;13.02;;;;;;;13.40;82.41;100658.94;4982480;28;20054;-83
2021/05/12 07:58:00;;;;;;;18.50;12.00;;;;;;;13.58;81.41;100655.88;4982545;28;20043;-81
2021/05/12 08:00:26;;;;;;;18.90;11.45;;;;;;;13.68;78.86;100660.97;4964022;28;20035;-81
2021/05/12 08:02:51;;;;;;;16.83;10.48;;;;;;;13.65;77.13;100662.19;4951486;28;20057;-81
2021/05/12 08:05:17;;;;;;;16.48;11.18;;;;;;;13.67;78.95;100656.63;4954791;28;20046;-81
2021/05/12 08:07:42;;;;;;;19.48;11.20;;;;;;;13.62;75.88;100656.34;4966876;28;20051;-81
2021/05/12 08:10:09;;;;;;;17.40;11.90;;;;;;;13.62;79.05;100657.16;4986287;28;20034;-81
2021/05/12 08:12:34;;;;;;;18.52;11.77;;;;;;;13.78;79.34;100650.72;4973830;28;20045;-81
2021/05/12 08:15:00;;;;;;;17.98;12.80;;;;;;;13.90;77.87;100651.91;4978037;28;20042;-81
2021/05/12 08:17:31;;;;;;;21.33;12.10;;;;;;;13.99;79.71;100652.63;4962440;28;20427;-81
2021/05/12 08:19:59;;;;;;;18.98;12.57;;;;;;;14.08;79.69;100659.59;4986685;28;20042;-81
2021/05/12 08:22:25;;;;;;;24.58;13.00;;;;;;;13.99;77.78;100656.16;4971784;28;20038;-82
2021/05/12 08:24:51;;;;;;;19.30;12.02;;;;;;;14.06;79.14;100658.94;4981914;28;20038;-82
2021/05/12 08:27:16;;;;;;;21.30;13.07;;;;;;;14.07;77.75;100655.22;4988868;28;20133;-81
2021/05/12 08:29:43;;;;;;;17.38;12.13;;;;;;;14.16;77.81;100654.09;4995036;28;20050;-81
2021/05/12 08:32:14;;;;;;;21.17;10.95;;;;;;;14.07;77.27;100654.38;4990062;28;20046;-81
2021/05/12 08:34:40;;;;;;;21.30;13.25;;;;;;;14.07;78.57;100649.84;4989574;28;20049;-82
2021/05/12 08:37:06;;;;;;;17.65;12.30;;;;;;;14.19;77.63;100648.31;4986821;28;20039;-83
2021/05/12 08:39:32;;;;;;;19.52;11.40;;;;;;;14.40;76.32;100639.38;4984512;28;20491;-81
2021/05/12 08:41:59;;;;;;;17.70;11.85;;;;;;;14.42;76.47;100652.69;4972714;28;20498;-82
2021/05/12 08:44:24;;;;;;;15.32;11.98;;;;;;;14.43;77.47;100654.34;4990232;28;20097;-80
2021/05/12 08:46:50;;;;;;;18.05;12.93;;;;;;;14.30;77.72;100651.50;4973007;28;20050;-81
2021/05/12 08:49:17;;;;;;;17.45;12.43;;;;;;;14.22;77.96;100657.88;4985687;28;20583;-80
2021/05/12 08:51:43;;;;;;;20.05;13.88;;;;;;;14.24;79.99;100645.00;4990434;28;20065;-82
2021/05/12 08:54:10;;;;;;;21.33;14.05;;;;;;;14.38;79.31;100641.41;4987003;28;20069;-81
2021/05/12 08:56:35;;;;;;;19.75;13.18;;;;;;;14.56;77.87;100632.91;4987925;28;20463;-82
2021/05/12 08:59:02;;;;;;;20.90;14.50;;;;;;;14.70;79.06;100636.53;4993489;28;20085;-81
2021/05/12 09:01:28;;;;;;;17.25;12.45;;;;;;;14.76;77.00;100638.50;4967322;28;20142;-81
2021/05/12 09:03:54;;;;;;;19.77;13.23;;;;;;;14.69;77.40;100645.69;4969716;28;20038;-82
2021/05/12 09:06:20;;;;;;;21.83;15.38;;;;;;;14.88;78.13;100644.19;4983466;28;20054;-81
2021/05/12 09:08:47;;;;;;;21.80;14.55;;;;;;;15.00;77.98;100634.50;4962156;28;20495;-81
2021/05/12 09:11:16;;;;;;;17.05;12.55;;;;;;;14.95;76.99;100649.63;4970328;28;20031;-82
2021/05/12 09:13:44;;;;;;;16.55;12.98;;;;;;;15.03;75.90;100642.22;4994527;28;20670;-83
2021/05/12 09:16:21;;;;;;;19.98;13.65;;;;;;;14.93;75.02;100655.22;4987665;28;20050;-81
2021/05/12 09:19:00;;;;;;;18.42;13.85;;;;;;;14.85;74.91;100653.50;4980101;28;20038;-83
2021/05/12 09:21:46;;;;;;;24.30;15.40;;;;;;;15.10;76.52;100640.41;4985723;28;20049;-82
2021/05/12 09:24:19;;;;;;;20.83;14.20;;;;;;;15.33;75.95;100641.97;4987354;28;20380;-82
2021/05/12 09:26:46;;;;;;;20.63;16.02;;;;;;;15.29;76.24;100641.53;4975309;28;20125;-81
2021/05/12 09:29:19;;;;;;;20.85;14.57;;;;;;;15.42;77.35;100640.81;4985042;28;20082;-82
2021/05/12 09:31:44;;;;;;;18.70;14.07;;;;;;;15.44;74.04;100644.13;5000513;28;20105;-82
2021/05/12 09:34:11;;;;;;;20.05;15.10;;;;;;;15.25;73.66;100637.59;4968654;28;20077;-82
2021/05/12 09:36:37;;;;;;;19.90;14.43;;;;;;;15.16;75.13;100630.63;4969873;28;20104;-82
2021/05/12 09:39:09;;;;;;;20.55;15.65;;;;;;;15.22;75.93;100621.78;4985301;28;20437;-82
2021/05/12 09:41:36;;;;;;;18.00;14.60;;;;;;;15.44;77.11;100640.59;4986999;28;20038;-80
2021/05/12 09:44:04;;;;;;;17.90;14.93;;;;;;;15.77;75.05;100632.69;4983120;28;20034;-83
2021/05/12 09:46:36;;;;;;;21.58;16.13;;;;;;;15.61;72.13;100641.09;4979077;28;20038;-82
2021/05/12 09:49:01;;;;;;;20.77;15.13;;;;;;;15.49;73.51;100630.00;4985206;28;20034;-82
2021/05/12 09:51:28;;;;;;;22.70;16.38;;;;;;;15.63;74.88;100628.22;4980892;28;20092;-80
2021/05/12 09:54:19;;;;;;;21.17;15.35;;;;;;;15.50;70.76;100632.50;4973633;28;20230;-83
2021/05/12 09:56:48;;;;;;;21.50;16.88;;;;;;;15.47;71.91;100630.19;4990219;28;20380;-82
2021/05/12 09:59:40;;;;;;;17.70;15.38;;;;;;;15.53;74.34;100636.69;4983728;28;20054;-83
2021/05/12 10:02:05;;;;;;;21.30;15.63;;;;;;;15.43;72.37;100626.25;4956583;28;20043;-80
2021/05/12 10:04:47;;;;;;;20.05;15.43;;;;;;;15.84;74.11;100624.56;4970389;28;20039;-81
2021/05/12 10:07:18;;;;;;;20.58;16.15;;;;;;;16.15;74.54;100621.34;4980768;28;20039;-82
2021/05/12 10:09:45;;;;;;;23.25;17.20;;;;;;;16.09;72.26;100628.41;4968601;28;20042;-80
2021/05/12 10:12:14;;;;;;;26.40;17.45;;;;;;;15.99;74.02;100628.78;4986695;28;20432;-83
2021/05/12 10:14:48;;;;;;;19.75;17.42;;;;;;;16.04;73.22;100628.19;4985095;28;20057;-81
2021/05/12 10:17:16;;;;;;;17.10;13.65;;;;;;;15.95;68.92;100627.53;4979231;28;20034;-82
2021/05/12 10:19:43;;;;;;;16.80;13.50;;;;;;;16.09;68.78;100625.69;4984236;28;20042;-80
2021/05/12 10:22:12;;;;;;;19.40;14.13;;;;;;;16.27;70.17;100626.97;4960208;28;20117;-81
2021/05/12 10:24:40;;;;;;;14.35;12.40;;;;;;;16.38;68.62;100627.22;4989407;28;20047;-84
2021/05/12 10:27:10;;;;;;;17.85;13.90;;;;;;;16.41;69.20;100621.38;4990297;28;20109;-82
2021/05/12 10:29:36;;;;;;;17.50;14.80;;;;;;;16.55;68.22;100633.06;4976549;28;20058;-83
2021/05/12 10:32:34;;;;;;;18.60;14.20;;;;;;;16.66;68.83;100623.50;4984525;28;20537;-82
2021/05/12 10:35:07;;;;;;;18.07;13.10;;;;;;;16.76;67.88;100625.75;4974926;28;20081;-80
2021/05/12 10:37:37;;;;;;;13.98;12.27;;;;;;;16.74;67.72;100630.56;4984489;28;20031;-82
2021/05/12 10:40:08;;;;;;;15.68;11.15;;;;;;;16.71;66.07;100629.09;4995604;28;20125;-82
2021/05/12 10:42:59;;;;;;;10.48;7.97;;;;;;;16.38;60.70;100610.97;4976553;28;20441;-82
2021/05/12 10:48:48;;;;;;;14.13;10.73;;;;;;;16.32;67.16;100628.03;5011529;28;20371;-81
2021/05/12 10:51:20;;;;;;;15.55;11.32;;;;;;;16.23;66.52;100618.44;5013629;28;20281;-81
2021/05/12 10:53:48;;;;;;;14.57;9.32;;;;;;;16.22;63.01;100619.47;4982752;28;20438;-83
2021/05/12 10:56:15;;;;;;;11.20;9.77;;;;;;;16.26;66.11;100620.75;4964854;28;20450;-80
2021/05/12 10:59:17;;;;;;;12.95;9.00;;;;;;;16.21;65.11;100615.09;4971508;28;20042;-82
2021/05/12 11:01:43;;;;;;;10.88;8.50;;;;;;;16.35;66.56;100610.53;4983327;28;20125;-82
2021/05/12 11:04:11;;;;;;;11.32;7.70;;;;;;;16.32;63.66;100616.38;4988485;28;20428;-81
2021/05/12 11:06:39;;;;;;;12.07;7.43;;;;;;;16.52;61.80;100616.41;4976119;28;20097;-82
2021/05/12 11:09:06;;;;;;;9.20;6.03;;;;;;;16.64;60.91;100617.44;4995728;28;20126;-81